sensor_id;sensor_type;location;lat;lon;timestamp;pressure;altitude;pressure_sealevel;temperature;humidity
10014;BME280;45684;48.358;10.746;2023-07-24T00:00:48;95574.41;;;19.36;100.00
10014;BME280;45684;48.358;10.746;2023-07-24T00:03:17;95579.09;;;19.40;100.00
10014;BME280;45684;48.358;10.746;2023-07-24T00:05:45;95574.78;;;19.38;100.00
10014;BME280;45684;48.358;10.746;2023-07-24T00:08:13;95569.31;;;19.38;100.00
10014;BME280;45684;48.358;10.746;2023-07-24T00:10:41;95563.03;;;19.38;100.00
10014;BME280;45684;48.358;10.746;2023-07-24T00:13:09;95556.00;;;19.37;100.00
10014;BME280;45684;48.358;10.746;2023-07-24T00:15:38;95550.91;;;19.35;100.00
10014;BME280;45684;48.358;10.746;2023-07-24T00:18:06;95550.47;;;19.30;100.00
10014;BME280;45684;48.358;10.746;2023-07-24T00:20:35;95546.56;;;19.34;100.00
10014;BME280;45684;48.358;10.746;2023-07-24T00:23:03;95544.59;;;19.24;100.00
10014;BME280;45684;48.358;10.746;2023-07-24T00:25:31;95539.09;;;19.17;100.00
10014;BME280;45684;48.358;10.746;2023-07-24T00:27:59;95539.88;;;19.18;100.00
10014;BME280;45684;48.358;10.746;2023-07-24T00:30:26;95543.38;;;19.11;100.00
10014;BME280;45684;48.358;10.746;2023-07-24T00:32:54;95544.19;;;19.15;100.00
10014;BME280;45684;48.358;10.746;2023-07-24T00:35:22;95542.22;;;19.19;100.00
10014;BME280;45684;48.358;10.746;2023-07-24T00:37:51;95545.81;;;19.41;100.00
10014;BME280;45684;48.358;10.746;2023-07-24T00:40:19;95534.84;;;19.48;100.00
10014;BME280;45684;48.358;10.746;2023-07-24T00:42:47;95529.78;;;19.57;100.00
10014;BME280;45684;48.358;10.746;2023-07-24T00:45:15;95529.03;;;19.60;100.00
10014;BME280;45684;48.358;10.746;2023-07-24T00:47:44;95541.16;;;19.56;100.00
10014;BME280;45684;48.358;10.746;2023-07-24T00:50:12;95548.56;;;19.48;100.00
10014;BME280;45684;48.358;10.746;2023-07-24T00:52:41;95553.63;;;19.39;100.00
10014;BME280;45684;48.358;10.746;2023-07-24T00:55:12;95547.78;;;19.48;100.00
10014;BME280;45684;48.358;10.746;2023-07-24T00:57:43;95548.25;;;19.75;100.00
10014;BME280;45684;48.358;10.746;2023-07-24T01:00:12;95547.47;;;19.88;100.00
10014;BME280;45684;48.358;10.746;2023-07-24T01:02:40;95547.09;;;19.83;100.00
10014;BME280;45684;48.358;10.746;2023-07-24T01:05:11;95545.50;;;19.85;100.00
10014;BME280;45684;48.358;10.746;2023-07-24T01:07:41;95527.88;;;19.90;100.00
10014;BME280;45684;48.358;10.746;2023-07-24T01:10:09;95537.28;;;19.93;100.00
10014;BME280;45684;48.358;10.746;2023-07-24T01:12:45;95549.44;;;19.92;100.00
10014;BME280;45684;48.358;10.746;2023-07-24T01:15:21;95549.81;;;20.04;100.00
10014;BME280;45684;48.358;10.746;2023-07-24T01:17:56;95556.09;;;20.05;100.00
10014;BME280;45684;48.358;10.746;2023-07-24T01:20:29;95546.69;;;20.09;100.00
10014;BME280;45684;48.358;10.746;2023-07-24T01:23:08;95543.53;;;20.04;100.00
10014;BME280;45684;48.358;10.746;2023-07-24T01:25:53;95549.84;;;20.01;100.00
10014;BME280;45684;48.358;10.746;2023-07-24T01:28:21;95557.28;;;19.97;100.00
10014;BME280;45684;48.358;10.746;2023-07-24T01:30:49;95545.91;;;19.91;100.00
10014;BME280;45684;48.358;10.746;2023-07-24T01:33:18;95557.28;;;19.97;100.00
10014;BME280;45684;48.358;10.746;2023-07-24T01:35:48;95555.31;;;19.97;100.00
10014;BME280;45684;48.358;10.746;2023-07-24T01:38:17;95556.91;;;19.91;100.00
10014;BME280;45684;48.358;10.746;2023-07-24T01:40:44;95579.63;;;19.77;100.00
10014;BME280;45684;48.358;10.746;2023-07-24T01:43:14;95612.53;;;19.81;100.00
10014;BME280;45684;48.358;10.746;2023-07-24T01:45:42;95647.03;;;19.85;100.00
10014;BME280;45684;48.358;10.746;2023-07-24T01:48:10;95673.72;;;19.88;100.00
10014;BME280;45684;48.358;10.746;2023-07-24T01:50:38;95682.75;;;19.96;100.00
10014;BME280;45684;48.358;10.746;2023-07-24T01:53:06;95625.91;;;20.04;100.00
10014;BME280;45684;48.358;10.746;2023-07-24T01:55:34;95582.38;;;20.06;100.00
10014;BME280;45684;48.358;10.746;2023-07-24T01:58:02;95495.69;;;20.05;100.00
10014;BME280;45684;48.358;10.746;2023-07-24T02:00:31;95478.44;;;20.04;100.00
10014;BME280;45684;48.358;10.746;2023-07-24T02:02:59;95472.56;;;19.52;100.00
10014;BME280;45684;48.358;10.746;2023-07-24T02:05:27;95462.78;;;19.41;100.00
10014;BME280;45684;48.358;10.746;2023-07-24T02:07:55;95469.78;;;19.13;100.00
10014;BME280;45684;48.358;10.746;2023-07-24T02:10:23;95452.53;;;19.09;100.00
10014;BME280;45684;48.358;10.746;2023-07-24T02:12:51;95440.06;;;19.26;100.00
10014;BME280;45684;48.358;10.746;2023-07-24T02:15:19;95450.59;;;19.17;100.00
10014;BME280;45684;48.358;10.746;2023-07-24T02:17:48;95461.97;;;19.33;100.00
10014;BME280;45684;48.358;10.746;2023-07-24T02:20:16;95480.03;;;19.45;100.00
10014;BME280;45684;48.358;10.746;2023-07-24T02:22:44;95489.03;;;19.52;100.00
10014;BME280;45684;48.358;10.746;2023-07-24T02:25:12;95496.47;;;19.52;100.00
10014;BME280;45684;48.358;10.746;2023-07-24T02:27:41;95536.81;;;19.48;100.00
10014;BME280;45684;48.358;10.746;2023-07-24T02:30:12;95655.44;;;19.30;100.00
10014;BME280;45684;48.358;10.746;2023-07-24T02:32:40;95834.25;;;19.02;100.00
10014;BME280;45684;48.358;10.746;2023-07-24T02:35:09;95814.34;;;19.09;100.00
10014;BME280;45684;48.358;10.746;2023-07-24T02:37:37;95801.78;;;19.04;100.00
10014;BME280;45684;48.358;10.746;2023-07-24T02:40:06;95790.88;;;19.15;100.00
10014;BME280;45684;48.358;10.746;2023-07-24T02:42:34;95774.06;;;19.20;100.00
10014;BME280;45684;48.358;10.746;2023-07-24T02:45:03;95743.97;;;19.27;100.00
10014;BME280;45684;48.358;10.746;2023-07-24T02:47:31;95716.59;;;19.38;100.00
10014;BME280;45684;48.358;10.746;2023-07-24T02:49:59;95696.66;;;19.41;100.00
10014;BME280;45684;48.358;10.746;2023-07-24T02:52:28;95688.03;;;19.43;100.00
10014;BME280;45684;48.358;10.746;2023-07-24T02:54:56;95626.94;;;19.49;100.00
10014;BME280;45684;48.358;10.746;2023-07-24T02:57:24;95616.34;;;19.48;100.00
10014;BME280;45684;48.358;10.746;2023-07-24T02:59:52;95558.75;;;19.51;100.00
10014;BME280;45684;48.358;10.746;2023-07-24T03:02:20;95536.03;;;19.44;100.00
10014;BME280;45684;48.358;10.746;2023-07-24T03:04:48;95539.53;;;19.44;100.00
10014;BME280;45684;48.358;10.746;2023-07-24T03:07:16;95524.69;;;19.45;100.00
10014;BME280;45684;48.358;10.746;2023-07-24T03:09:48;95497.28;;;19.63;100.00
10014;BME280;45684;48.358;10.746;2023-07-24T03:12:18;95471.38;;;19.57;100.00
10014;BME280;45684;48.358;10.746;2023-07-24T03:14:46;95478.41;;;19.19;100.00
10014;BME280;45684;48.358;10.746;2023-07-24T03:17:14;95484.31;;;19.42;100.00
10014;BME280;45684;48.358;10.746;2023-07-24T03:19:42;95493.31;;;19.39;100.00
10014;BME280;45684;48.358;10.746;2023-07-24T03:22:10;95510.97;;;19.45;100.00
10014;BME280;45684;48.358;10.746;2023-07-24T03:24:38;95514.47;;;19.38;100.00
10014;BME280;45684;48.358;10.746;2023-07-24T03:27:07;95519.59;;;19.51;100.00
10014;BME280;45684;48.358;10.746;2023-07-24T03:29:35;95529.00;;;19.50;100.00
10014;BME280;45684;48.358;10.746;2023-07-24T03:32:04;95509.00;;;19.53;100.00
10014;BME280;45684;48.358;10.746;2023-07-24T03:34:32;95490.22;;;19.62;100.00
10014;BME280;45684;48.358;10.746;2023-07-24T03:37:00;95467.47;;;19.58;100.00
10014;BME280;45684;48.358;10.746;2023-07-24T03:39:29;95459.66;;;19.46;100.00
10014;BME280;45684;48.358;10.746;2023-07-24T03:41:57;95457.69;;;19.35;100.00
10014;BME280;45684;48.358;10.746;2023-07-24T03:44:26;95447.06;;;19.30;100.00
10014;BME280;45684;48.358;10.746;2023-07-24T03:46:54;95445.50;;;19.29;100.00
10014;BME280;45684;48.358;10.746;2023-07-24T03:49:22;95451.78;;;19.26;100.00
10014;BME280;45684;48.358;10.746;2023-07-24T03:51:50;95460.78;;;19.23;100.00
10014;BME280;45684;48.358;10.746;2023-07-24T03:54:18;95479.16;;;19.16;100.00
10014;BME280;45684;48.358;10.746;2023-07-24T03:56:45;95479.19;;;19.19;100.00
10014;BME280;45684;48.358;10.746;2023-07-24T03:59:13;95474.84;;;19.11;100.00
10014;BME280;45684;48.358;10.746;2023-07-24T04:01:42;95484.25;;;19.10;100.00
10014;BME280;45684;48.358;10.746;2023-07-24T04:04:10;95486.22;;;19.09;100.00
10014;BME280;45684;48.358;10.746;2023-07-24T04:06:38;95503.84;;;19.12;100.00
10014;BME280;45684;48.358;10.746;2023-07-24T04:09:06;95481.53;;;19.17;100.00
10014;BME280;45684;48.358;10.746;2023-07-24T04:11:34;95486.63;;;19.29;100.00
10014;BME280;45684;48.358;10.746;2023-07-24T04:14:04;95494.09;;;19.36;100.00
10014;BME280;45684;48.358;10.746;2023-07-24T04:16:32;95504.28;;;19.35;100.00
10014;BME280;45684;48.358;10.746;2023-07-24T04:19:02;95505.84;;;19.29;100.00
10014;BME280;45684;48.358;10.746;2023-07-24T04:21:29;95508.19;;;19.27;100.00
10014;BME280;45684;48.358;10.746;2023-07-24T04:23:57;95474.13;;;19.32;100.00
10014;BME280;45684;48.358;10.746;2023-07-24T04:26:25;95443.59;;;19.41;100.00
10014;BME280;45684;48.358;10.746;2023-07-24T04:28:54;95440.84;;;19.41;100.00
10014;BME280;45684;48.358;10.746;2023-07-24T04:31:22;95432.97;;;19.39;100.00
10014;BME280;45684;48.358;10.746;2023-07-24T04:33:50;95446.31;;;19.41;100.00
10014;BME280;45684;48.358;10.746;2023-07-24T04:36:19;95447.88;;;19.49;100.00
10014;BME280;45684;48.358;10.746;2023-07-24T04:38:47;95455.72;;;19.50;100.00
10014;BME280;45684;48.358;10.746;2023-07-24T04:41:14;95458.47;;;19.47;100.00
10014;BME280;45684;48.358;10.746;2023-07-24T04:43:43;95441.22;;;19.50;100.00
10014;BME280;45684;48.358;10.746;2023-07-24T04:46:11;95422.00;;;19.53;100.00
10014;BME280;45684;48.358;10.746;2023-07-24T04:48:38;95413.41;;;19.58;100.00
10014;BME280;45684;48.358;10.746;2023-07-24T04:51:06;95434.59;;;19.61;100.00
10014;BME280;45684;48.358;10.746;2023-07-24T04:53:35;95436.56;;;19.68;100.00
10014;BME280;45684;48.358;10.746;2023-07-24T04:56:04;95444.78;;;19.75;100.00
10014;BME280;45684;48.358;10.746;2023-07-24T04:58:31;95449.47;;;19.78;100.00
10014;BME280;45684;48.358;10.746;2023-07-24T05:01:02;95448.69;;;19.81;100.00
10014;BME280;45684;48.358;10.746;2023-07-24T05:03:30;95449.88;;;19.87;100.00
10014;BME280;45684;48.358;10.746;2023-07-24T05:05:58;95465.91;;;19.85;100.00
10014;BME280;45684;48.358;10.746;2023-07-24T05:08:26;95457.69;;;19.85;100.00
10014;BME280;45684;48.358;10.746;2023-07-24T05:10:55;95465.91;;;19.85;100.00
10014;BME280;45684;48.358;10.746;2023-07-24T05:13:23;95464.38;;;19.84;100.00
10014;BME280;45684;48.358;10.746;2023-07-24T05:15:51;95448.69;;;19.85;100.00
10014;BME280;45684;48.358;10.746;2023-07-24T05:18:19;95438.88;;;19.87;100.00
10014;BME280;45684;48.358;10.746;2023-07-24T05:20:48;95426.72;;;19.88;100.00
10014;BME280;45684;48.358;10.746;2023-07-24T05:23:17;95424.34;;;19.94;100.00
10014;BME280;45684;48.358;10.746;2023-07-24T05:25:45;95425.50;;;20.00;100.00
10014;BME280;45684;48.358;10.746;2023-07-24T05:28:14;95431.78;;;20.04;100.00
10014;BME280;45684;48.358;10.746;2023-07-24T05:30:42;95429.81;;;20.16;100.00
10014;BME280;45684;48.358;10.746;2023-07-24T05:33:10;95424.25;;;20.37;100.00
10014;BME280;45684;48.358;10.746;2023-07-24T05:35:38;95424.97;;;20.59;100.00
10014;BME280;45684;48.358;10.746;2023-07-24T05:38:06;95432.72;;;20.78;100.00
10014;BME280;45684;48.358;10.746;2023-07-24T05:40:34;95436.66;;;20.84;100.00
10014;BME280;45684;48.358;10.746;2023-07-24T05:43:02;95435.44;;;20.85;100.00
10014;BME280;45684;48.358;10.746;2023-07-24T05:45:31;95439.00;;;20.82;100.00
10014;BME280;45684;48.358;10.746;2023-07-24T05:47:59;95431.16;;;20.77;100.00
10014;BME280;45684;48.358;10.746;2023-07-24T05:50:27;95428.84;;;20.72;100.00
10014;BME280;45684;48.358;10.746;2023-07-24T05:52:55;95407.66;;;20.69;100.00
10014;BME280;45684;48.358;10.746;2023-07-24T05:55:23;95408.47;;;20.66;100.00
10014;BME280;45684;48.358;10.746;2023-07-24T05:57:51;95408.47;;;20.66;100.00
10014;BME280;45684;48.358;10.746;2023-07-24T06:00:18;95413.91;;;20.73;100.00
10014;BME280;45684;48.358;10.746;2023-07-24T06:02:48;95415.00;;;20.90;100.00
10014;BME280;45684;48.358;10.746;2023-07-24T06:05:16;95420.59;;;21.38;100.00
10014;BME280;45684;48.358;10.746;2023-07-24T06:07:43;95413.97;;;21.77;100.00
10014;BME280;45684;48.358;10.746;2023-07-24T06:10:11;95426.22;;;22.18;100.00
10014;BME280;45684;48.358;10.746;2023-07-24T06:12:39;95430.63;;;22.46;100.00
10014;BME280;45684;48.358;10.746;2023-07-24T06:15:08;95436.88;;;22.50;100.00
10014;BME280;45684;48.358;10.746;2023-07-24T06:17:35;95427.41;;;22.51;100.00
10014;BME280;45684;48.358;10.746;2023-07-24T06:20:06;95412.94;;;22.43;100.00
10014;BME280;45684;48.358;10.746;2023-07-24T06:22:34;95443.34;;;22.32;100.00
10014;BME280;45684;48.358;10.746;2023-07-24T06:25:02;95440.00;;;22.14;100.00
10014;BME280;45684;48.358;10.746;2023-07-24T06:27:30;95472.81;;;21.98;100.00
10014;BME280;45684;48.358;10.746;2023-07-24T06:29:58;95503.84;;;21.50;100.00
10014;BME280;45684;48.358;10.746;2023-07-24T06:32:40;95581.44;;;21.12;100.00
10014;BME280;45684;48.358;10.746;2023-07-24T06:35:09;95612.88;;;20.97;100.00
10014;BME280;45684;48.358;10.746;2023-07-24T06:37:37;95626.69;;;20.65;100.00
10014;BME280;45684;48.358;10.746;2023-07-24T06:40:06;95620.44;;;20.43;100.00
10014;BME280;45684;48.358;10.746;2023-07-24T06:42:34;95627.88;;;20.25;100.00
10014;BME280;45684;48.358;10.746;2023-07-24T06:45:02;95621.59;;;20.10;100.00
10014;BME280;45684;48.358;10.746;2023-07-24T06:47:34;95627.41;;;19.76;100.00
10014;BME280;45684;48.358;10.746;2023-07-24T06:50:01;95627.41;;;19.69;100.00
10014;BME280;45684;48.358;10.746;2023-07-24T06:52:32;95628.59;;;19.68;100.00
10014;BME280;45684;48.358;10.746;2023-07-24T06:55:00;95628.94;;;19.63;100.00
10014;BME280;45684;48.358;10.746;2023-07-24T06:57:28;95650.53;;;19.68;100.00
10014;BME280;45684;48.358;10.746;2023-07-24T06:59:56;95642.31;;;19.72;100.00
10014;BME280;45684;48.358;10.746;2023-07-24T07:02:24;95641.94;;;19.73;100.00
10014;BME280;45684;48.358;10.746;2023-07-24T07:04:52;95630.56;;;19.75;100.00
10014;BME280;45684;48.358;10.746;2023-07-24T07:07:20;95637.63;;;19.79;100.00
10014;BME280;45684;48.358;10.746;2023-07-24T07:09:49;95627.03;;;19.81;100.00
10014;BME280;45684;48.358;10.746;2023-07-24T07:12:17;95630.19;;;19.80;100.00
10014;BME280;45684;48.358;10.746;2023-07-24T07:14:48;95636.84;;;19.82;100.00
10014;BME280;45684;48.358;10.746;2023-07-24T07:17:16;95638.41;;;19.69;100.00
10014;BME280;45684;48.358;10.746;2023-07-24T07:19:43;95631.69;;;19.59;100.00
10014;BME280;45684;48.358;10.746;2023-07-24T07:22:11;95634.06;;;19.61;100.00
10014;BME280;45684;48.358;10.746;2023-07-24T07:24:39;95642.66;;;19.63;100.00
10014;BME280;45684;48.358;10.746;2023-07-24T07:27:08;95637.59;;;19.61;100.00
10014;BME280;45684;48.358;10.746;2023-07-24T07:29:36;95635.25;;;19.64;100.00
10014;BME280;45684;48.358;10.746;2023-07-24T07:32:05;95608.63;;;19.78;100.00
10014;BME280;45684;48.358;10.746;2023-07-24T07:34:33;95580.03;;;19.86;100.00
10014;BME280;45684;48.358;10.746;2023-07-24T07:37:02;95605.50;;;19.91;100.00
10014;BME280;45684;48.358;10.746;2023-07-24T07:39:30;95590.63;;;19.92;100.00
10014;BME280;45684;48.358;10.746;2023-07-24T07:41:59;95555.31;;;19.94;100.00
10014;BME280;45684;48.358;10.746;2023-07-24T07:44:34;95542.75;;;20.03;100.00
10014;BME280;45684;48.358;10.746;2023-07-24T07:47:03;95526.69;;;20.02;100.00
10014;BME280;45684;48.358;10.746;2023-07-24T07:49:31;95498.84;;;20.07;100.00
10014;BME280;45684;48.358;10.746;2023-07-24T07:51:58;95467.88;;;20.06;100.00
10014;BME280;45684;48.358;10.746;2023-07-24T07:54:26;95469.81;;;20.09;100.00
10014;BME280;45684;48.358;10.746;2023-07-24T07:56:54;95440.38;;;20.17;100.00
10014;BME280;45684;48.358;10.746;2023-07-24T07:59:22;95425.84;;;20.27;100.00
10014;BME280;45684;48.358;10.746;2023-07-24T08:01:51;95418.38;;;20.38;100.00
10014;BME280;45684;48.358;10.746;2023-07-24T08:04:19;95427.34;;;20.46;100.00
10014;BME280;45684;48.358;10.746;2023-07-24T08:06:47;95444.63;;;20.54;100.00
10014;BME280;45684;48.358;10.746;2023-07-24T08:09:15;95457.09;;;20.69;100.00
10014;BME280;45684;48.358;10.746;2023-07-24T08:11:44;95465.31;;;20.80;100.00
10014;BME280;45684;48.358;10.746;2023-07-24T08:14:11;95463.31;;;20.84;100.00
10014;BME280;45684;48.358;10.746;2023-07-24T08:16:39;95464.84;;;20.96;100.00
10014;BME280;45684;48.358;10.746;2023-07-24T08:19:09;95479.28;;;21.14;100.00
10014;BME280;45684;48.358;10.746;2023-07-24T08:21:37;95490.13;;;21.43;100.00
10014;BME280;45684;48.358;10.746;2023-07-24T08:24:05;95485.97;;;21.76;100.00
10014;BME280;45684;48.358;10.746;2023-07-24T08:26:33;95476.50;;;22.25;100.00
10014;BME280;45684;48.358;10.746;2023-07-24T08:29:01;95481.09;;;22.73;100.00
10014;BME280;45684;48.358;10.746;2023-07-24T08:31:29;95499.44;;;22.90;100.00
10014;BME280;45684;48.358;10.746;2023-07-24T08:33:57;95481.16;;;23.04;100.00
10014;BME280;45684;48.358;10.746;2023-07-24T08:36:27;95494.94;;;23.31;100.00
10014;BME280;45684;48.358;10.746;2023-07-24T08:38:56;95483.56;;;23.56;100.00
10014;BME280;45684;48.358;10.746;2023-07-24T08:41:24;95492.78;;;23.73;100.00
10014;BME280;45684;48.358;10.746;2023-07-24T08:43:52;95508.28;;;23.90;100.00
10014;BME280;45684;48.358;10.746;2023-07-24T08:46:20;95513.38;;;23.91;100.00
10014;BME280;45684;48.358;10.746;2023-07-24T08:48:49;95523.75;;;24.11;100.00
10014;BME280;45684;48.358;10.746;2023-07-24T08:51:18;95522.59;;;24.08;100.00
10014;BME280;45684;48.358;10.746;2023-07-24T08:53:49;95509.25;;;24.03;100.00
10014;BME280;45684;48.358;10.746;2023-07-24T08:56:18;95513.03;;;24.13;100.00
10014;BME280;45684;48.358;10.746;2023-07-24T08:58:47;95514.13;;;24.19;100.00
10014;BME280;45684;48.358;10.746;2023-07-24T09:01:14;95519.66;;;24.19;100.00
10014;BME280;45684;48.358;10.746;2023-07-24T09:03:43;95508.59;;;24.19;100.00
10014;BME280;45684;48.358;10.746;2023-07-24T09:06:11;95496.47;;;24.36;100.00
10014;BME280;45684;48.358;10.746;2023-07-24T09:08:40;95489.47;;;24.28;100.00
10014;BME280;45684;48.358;10.746;2023-07-24T09:11:13;95489.47;;;24.28;100.00
10014;BME280;45684;48.358;10.746;2023-07-24T09:13:42;95481.16;;;24.08;100.00
10014;BME280;45684;48.358;10.746;2023-07-24T09:16:21;95492.97;;;24.32;100.00
10014;BME280;45684;48.358;10.746;2023-07-24T09:18:49;95484.00;;;24.25;100.00
10014;BME280;45684;48.358;10.746;2023-07-24T09:21:28;95486.91;;;24.41;100.00
10014;BME280;45684;48.358;10.746;2023-07-24T09:23:56;95480.13;;;24.46;100.00
10014;BME280;45684;48.358;10.746;2023-07-24T09:26:26;95491.41;;;24.75;100.00
10014;BME280;45684;48.358;10.746;2023-07-24T09:28:55;95494.88;;;24.79;100.00
10014;BME280;45684;48.358;10.746;2023-07-24T09:31:34;95478.06;;;24.89;100.00
10014;BME280;45684;48.358;10.746;2023-07-24T09:34:02;95483.91;;;25.15;100.00
10014;BME280;45684;48.358;10.746;2023-07-24T09:36:37;95472.47;;;25.13;100.00
10014;BME280;45684;48.358;10.746;2023-07-24T09:39:05;95486.31;;;25.13;100.00
10014;BME280;45684;48.358;10.746;2023-07-24T09:41:39;95491.41;;;25.51;100.00
10014;BME280;45684;48.358;10.746;2023-07-24T09:44:07;95494.16;;;25.51;100.00
10014;BME280;45684;48.358;10.746;2023-07-24T09:46:35;95496.09;;;25.54;100.00
10014;BME280;45684;48.358;10.746;2023-07-24T09:49:13;95483.22;;;25.63;99.06
10014;BME280;45684;48.358;10.746;2023-07-24T09:51:43;95469.31;;;25.83;99.26
10014;BME280;45684;48.358;10.746;2023-07-24T09:54:15;95478.59;;;25.93;96.81
10014;BME280;45684;48.358;10.746;2023-07-24T09:56:50;95481.94;;;26.01;100.00
10014;BME280;45684;48.358;10.746;2023-07-24T09:59:36;95476.84;;;25.99;100.00
10014;BME280;45684;48.358;10.746;2023-07-24T10:02:06;95479.66;;;25.63;96.99
10014;BME280;45684;48.358;10.746;2023-07-24T10:04:37;95474.44;;;25.49;100.00
10014;BME280;45684;48.358;10.746;2023-07-24T10:07:07;95479.84;;;25.56;100.00
10014;BME280;45684;48.358;10.746;2023-07-24T10:09:35;95473.72;;;25.28;99.43
10014;BME280;45684;48.358;10.746;2023-07-24T10:12:06;95456.22;;;25.15;100.00
10014;BME280;45684;48.358;10.746;2023-07-24T10:14:35;95440.91;;;25.10;100.00
10014;BME280;45684;48.358;10.746;2023-07-24T10:17:04;95458.16;;;25.34;100.00
10014;BME280;45684;48.358;10.746;2023-07-24T10:19:36;95450.34;;;25.82;100.00
10014;BME280;45684;48.358;10.746;2023-07-24T10:22:07;95458.47;;;26.22;100.00
10014;BME280;45684;48.358;10.746;2023-07-24T10:24:34;95463.19;;;26.54;98.69
10014;BME280;45684;48.358;10.746;2023-07-24T10:27:09;95460.19;;;27.03;94.94
10014;BME280;45684;48.358;10.746;2023-07-24T10:29:37;95464.28;;;27.53;85.96
10014;BME280;45684;48.358;10.746;2023-07-24T10:32:16;95459.19;;;27.89;83.47
10014;BME280;45684;48.358;10.746;2023-07-24T10:34:45;95464.94;;;28.08;79.48
10014;BME280;45684;48.358;10.746;2023-07-24T10:37:13;95465.84;;;27.54;78.37
10014;BME280;45684;48.358;10.746;2023-07-24T10:39:41;95455.16;;;27.39;80.15
10014;BME280;45684;48.358;10.746;2023-07-24T10:42:11;95453.38;;;27.71;77.37
10014;BME280;45684;48.358;10.746;2023-07-24T10:44:39;95442.41;;;28.28;74.11
10014;BME280;45684;48.358;10.746;2023-07-24T10:47:07;95440.72;;;28.87;67.31
10014;BME280;45684;48.358;10.746;2023-07-24T10:49:35;95431.31;;;29.15;71.07
10014;BME280;45684;48.358;10.746;2023-07-24T10:52:03;95433.00;;;29.44;64.47
10014;BME280;45684;48.358;10.746;2023-07-24T10:54:31;95441.94;;;29.70;72.02
10014;BME280;45684;48.358;10.746;2023-07-24T10:57:00;95427.69;;;29.37;64.05
10014;BME280;45684;48.358;10.746;2023-07-24T10:59:39;95424.66;;;29.53;64.74
10014;BME280;45684;48.358;10.746;2023-07-24T11:02:07;95439.66;;;28.93;60.69
10014;BME280;45684;48.358;10.746;2023-07-24T11:04:36;95438.06;;;28.83;65.13
10014;BME280;45684;48.358;10.746;2023-07-24T11:07:04;95442.22;;;29.01;68.03
10014;BME280;45684;48.358;10.746;2023-07-24T11:09:36;95431.59;;;29.39;64.69
10014;BME280;45684;48.358;10.746;2023-07-24T11:12:10;95433.28;;;29.77;63.68
10014;BME280;45684;48.358;10.746;2023-07-24T11:14:50;95409.47;;;29.94;61.39
10014;BME280;45684;48.358;10.746;2023-07-24T11:17:21;95390.31;;;30.24;55.17
10014;BME280;45684;48.358;10.746;2023-07-24T11:19:49;95371.69;;;30.30;56.58
10014;BME280;45684;48.358;10.746;2023-07-24T11:22:21;95367.38;;;30.29;56.68
10014;BME280;45684;48.358;10.746;2023-07-24T11:24:49;95373.53;;;30.70;60.56
10014;BME280;45684;48.358;10.746;2023-07-24T11:27:17;95392.94;;;30.46;58.30
10014;BME280;45684;48.358;10.746;2023-07-24T11:29:48;95406.38;;;29.92;57.98
10014;BME280;45684;48.358;10.746;2023-07-24T11:32:19;95398.88;;;29.62;67.65
10014;BME280;45684;48.358;10.746;2023-07-24T11:34:48;95417.09;;;29.22;65.90
10014;BME280;45684;48.358;10.746;2023-07-24T11:37:17;95445.50;;;28.64;70.29
10014;BME280;45684;48.358;10.746;2023-07-24T11:39:55;95463.97;;;27.89;71.61
10014;BME280;45684;48.358;10.746;2023-07-24T11:42:25;95502.50;;;27.07;77.30
10014;BME280;45684;48.358;10.746;2023-07-24T11:44:54;95537.63;;;26.55;79.83
10014;BME280;45684;48.358;10.746;2023-07-24T11:47:22;95565.69;;;25.92;93.83
10014;BME280;45684;48.358;10.746;2023-07-24T11:49:57;95601.88;;;25.45;100.00
10014;BME280;45684;48.358;10.746;2023-07-24T11:52:26;95608.94;;;25.10;100.00
10014;BME280;45684;48.358;10.746;2023-07-24T11:54:57;95630.72;;;24.84;100.00
10014;BME280;45684;48.358;10.746;2023-07-24T11:57:27;95644.53;;;24.37;100.00
10014;BME280;45684;48.358;10.746;2023-07-24T11:59:57;95625.13;;;23.87;100.00
10014;BME280;45684;48.358;10.746;2023-07-24T12:02:26;95604.00;;;23.42;100.00
10014;BME280;45684;48.358;10.746;2023-07-24T12:04:55;95605.88;;;22.81;100.00
10014;BME280;45684;48.358;10.746;2023-07-24T12:07:30;95615.19;;;22.53;100.00
10014;BME280;45684;48.358;10.746;2023-07-24T12:10:00;95626.84;;;22.23;100.00
10014;BME280;45684;48.358;10.746;2023-07-24T12:12:39;95604.03;;;22.22;100.00
10014;BME280;45684;48.358;10.746;2023-07-24T12:15:09;95582.41;;;22.21;100.00
10014;BME280;45684;48.358;10.746;2023-07-24T12:17:38;95562.69;;;22.26;100.00
10014;BME280;45684;48.358;10.746;2023-07-24T12:20:07;95562.34;;;22.20;100.00
10014;BME280;45684;48.358;10.746;2023-07-24T12:22:36;95574.19;;;22.13;100.00
10014;BME280;45684;48.358;10.746;2023-07-24T12:25:06;95599.31;;;22.19;100.00
10014;BME280;45684;48.358;10.746;2023-07-24T12:27:34;95589.06;;;22.23;100.00
10014;BME280;45684;48.358;10.746;2023-07-24T12:30:02;95593.81;;;22.19;100.00
10014;BME280;45684;48.358;10.746;2023-07-24T12:32:31;95569.34;;;22.28;100.00
10014;BME280;45684;48.358;10.746;2023-07-24T12:34:59;95566.34;;;22.05;100.00
10014;BME280;45684;48.358;10.746;2023-07-24T12:37:27;95547.59;;;21.89;100.00
10014;BME280;45684;48.358;10.746;2023-07-24T12:39:55;95519.31;;;22.33;100.00
10014;BME280;45684;48.358;10.746;2023-07-24T12:42:23;95484.50;;;22.12;100.00
10014;BME280;45684;48.358;10.746;2023-07-24T12:44:51;95465.78;;;22.69;100.00
10014;BME280;45684;48.358;10.746;2023-07-24T12:47:18;95465.31;;;23.08;100.00
10014;BME280;45684;48.358;10.746;2023-07-24T12:49:48;95472.31;;;23.43;100.00